메인 페이지
METAR-TAF:

METAR-TAF

공항 :

에스키셰히르, 터키

위도: 39-47N, 경도: 030-34E, 고도: 785m

현재 날씨관측

예보는 7 시간 31분 전, 08:29시(UTC)에 발표되었습니다.
여러 방향의 바람 2kt
온도 -3°C
습도 93%
기압 1024 hPa
시정: 1600m
고도 300ft 상공 흐림
곳곳에 안개

METAR: LTBI 180829Z VRB02KT 1600 BCFG OVC003 M03/M04 Q1024 NOSIG RMK RWY08 11003KT 040V150

시각: 19:00 (16:00 UTC)

예보

예보는 1 시간 3분 전, 14:57시(UTC)에 발표되었습니다.
예보 대상 시간: 18일 15시부터 18일 24시까지 (UTC)
여러 방향의 바람 2kt
시정: 3000m
박무
전환 중
18일 18시부터 18일 20시까지 (UTC)
시정: 0500m
고도 200ft 상공
어는 안개

TAF: LTBI 181457Z 1815/1824 VRB02KT 3000 BR NSC BECMG 1818/1820 0500 FZFG VV002

4,000개 이상의 공항 관측 자료 및 예보 (METAR 및 TAF 보고).

지도상에서 검색 가능한 기상관측소가 노란 점과 빨간 점으로 표시되어 있습니다.

기상관측소 명을 보려면 표시 위로 마우스를 이동하세요.

날씨 관측과 예보를 보려면 클릭하세요.

지도 변경 : 확대하려면 엑스 표시가 있는 녹색 버튼, 축소하려면 빼기 표시가 있는 녹색 버튼, 다음 페이지의 지도를 보려면 녹색 화살표를 클릭하세요.


METAR-TAF: